To NAV CANADA Home Page Login to a new session Search on AWWS site Feedback and Comments Disclaimer Vers la page française équivalente Tips FAQ What's new on the site To the Forecasts and Observations / NOTAM section To "File a Flight Plan" website Publications and other links Update of the User's profile FIC Telephone Numbers My Weather Data Folder Route Weather Data Regional Weather Data Local Weather Data To the Forecasts and Observations / NOTAM section
Request Generated 07/28/2016 at 08:33:38 UTC . Weather information available at that time is displayed.

METAR/TAF

RANKIN INLET/NU    

METAR CYRT 280800Z 21006KT 10SM BKN031 10/09 A3001 RMK SC7 SLP164=
METAR CYRT 280700Z 16008KT 6SM -RA BKN022 09/09 A3000 RMK SC7 SLP163=
METAR CYRT 280600Z 17008KT 6SM -RA BKN024 09/09 A3001 RMK SC6 SLP166=

TAF CYRT 280538Z 2806/2818 16008KT P6SM FEW015 BKN030 TEMPO 2806/2810
5SM -RA BR BKN020
FM281000 16008KT P6SM -RA FEW008 SCT015 OVC030 TEMPO 2810/2814
3SM -RA BR SCT008 OVC015
BECMG 2812/2814 28010KT
FM281400 VRB03KT P6SM SCT015 BKN030 TEMPO 2814/2818 SCT030
RMK NXT FCST BY 281200Z=
Your time UTC time
Weather data provided by Environment Canada and NAV CANADA